Time;durP1;ratioP1;P1;durP2;ratioP2;P2;SDS_P1;SDS_P2;PMS_P1;PMS_P2;Temp;Humidity;BMP_temperature;BMP_pressure;BME280_temperature;BME280_humidity;BME280_pressure;Samples;Min_cycle;Max_cycle;Signal;HPM_P1;HPM_P2
2021/03/24 00:00:11;;;;;;;39.20;12.70;;;;;;;10.50;100.00;102378.25;5031346;28;20041;-71
2021/03/24 00:02:37;;;;;;;45.88;13.10;;;;;;;10.49;100.00;102382.88;5031208;28;20048;-72
2021/03/24 00:05:10;;;;;;;43.90;13.55;;;;;;;10.48;100.00;102378.44;5031174;28;20041;-72
2021/03/24 00:07:37;;;;;;;36.13;12.97;;;;;;;10.49;100.00;102382.88;5031515;28;20354;-71
2021/03/24 00:10:04;;;;;;;42.28;12.13;;;;;;;10.49;100.00;102376.56;5031143;28;20041;-71
2021/03/24 00:12:30;;;;;;;43.00;12.52;;;;;;;10.50;100.00;102373.63;5030675;28;20052;-71
2021/03/24 00:14:56;;;;;;;60.65;12.80;;;;;;;10.50;100.00;102373.63;5031058;28;20037;-71
2021/03/24 00:17:21;;;;;;;38.08;13.68;;;;;;;10.50;100.00;102379.09;5031003;28;20099;-72
2021/03/24 00:19:47;;;;;;;42.08;12.80;;;;;;;10.52;100.00;102376.13;5030945;28;20095;-72
2021/03/24 00:22:13;;;;;;;46.10;12.63;;;;;;;10.51;100.00;102375.31;5031004;28;20125;-71
2021/03/24 00:24:38;;;;;;;37.22;11.15;;;;;;;10.51;100.00;102371.72;5030721;28;20083;-71
2021/03/24 00:27:05;;;;;;;33.47;11.40;;;;;;;10.52;100.00;102382.44;5030856;28;20034;-71
2021/03/24 00:29:31;;;;;;;40.00;11.80;;;;;;;10.53;100.00;102378.66;5030896;28;20087;-71
2021/03/24 00:31:56;;;;;;;41.38;12.02;;;;;;;10.53;100.00;102372.34;5030851;28;20041;-71
2021/03/24 00:34:22;;;;;;;39.47;12.00;;;;;;;10.53;100.00;102373.19;5030759;28;20072;-71
2021/03/24 00:36:48;;;;;;;46.58;12.52;;;;;;;10.51;100.00;102369.84;5030795;28;20086;-71
2021/03/24 00:39:17;;;;;;;45.85;11.43;;;;;;;10.52;100.00;102368.78;5030767;28;20045;-72
2021/03/24 00:41:43;;;;;;;43.00;13.30;;;;;;;10.52;100.00;102360.59;5030726;28;20037;-72
2021/03/24 00:44:09;;;;;;;46.85;11.30;;;;;;;10.52;100.00;102366.06;5030638;28;20039;-72
2021/03/24 00:46:38;;;;;;;40.75;12.18;;;;;;;10.52;100.00;102363.31;5030771;28;20061;-72
2021/03/24 00:49:03;;;;;;;38.53;12.05;;;;;;;10.49;100.00;102361.00;5030696;28;20572;-71
2021/03/24 00:51:29;;;;;;;32.97;12.93;;;;;;;10.50;100.00;102362.69;5030661;28;20041;-71
2021/03/24 00:53:54;;;;;;;31.35;10.90;;;;;;;10.50;100.00;102362.69;5030804;28;20037;-71
2021/03/24 00:56:20;;;;;;;33.63;12.18;;;;;;;10.51;100.00;102358.06;5030750;28;20087;-71
2021/03/24 00:58:45;;;;;;;41.78;12.65;;;;;;;10.51;100.00;102358.91;5030581;28;20144;-72
2021/03/24 01:01:11;;;;;;;46.67;13.20;;;;;;;10.51;100.00;102353.44;5031053;28;20063;-72
2021/03/24 01:03:37;;;;;;;37.83;11.68;;;;;;;10.51;100.00;102358.91;5030753;28;20041;-71
2021/03/24 01:06:03;;;;;;;35.85;11.20;;;;;;;10.51;100.00;102361.63;5030522;28;20073;-71
2021/03/24 01:08:29;;;;;;;37.88;12.52;;;;;;;10.51;100.00;102358.06;5030469;28;20065;-71
2021/03/24 01:10:56;;;;;;;39.40;11.88;;;;;;;10.51;100.00;102355.34;5030469;28;20060;-71
2021/03/24 01:13:24;;;;;;;38.03;11.57;;;;;;;10.50;100.00;102350.91;5030512;28;20072;-71
2021/03/24 01:15:50;;;;;;;27.13;10.05;;;;;;;10.49;100.00;102344.63;5030470;28;20033;-72
2021/03/24 01:18:17;;;;;;;40.22;11.02;;;;;;;10.50;100.00;102342.72;5030356;28;20044;-71
2021/03/24 01:20:43;;;;;;;39.72;11.88;;;;;;;10.48;100.00;102342.94;5030520;28;20029;-72
2021/03/24 01:23:09;;;;;;;34.30;10.88;;;;;;;10.49;100.00;102350.06;5030757;28;20421;-72
2021/03/24 01:25:35;;;;;;;35.78;10.00;;;;;;;10.49;100.00;102355.53;5033958;28;20060;-71
2021/03/24 01:28:04;;;;;;;40.97;10.60;;;;;;;10.49;100.00;102350.06;5034073;28;20072;-71
2021/03/24 01:30:35;;;;;;;34.10;11.10;;;;;;;10.50;100.00;102353.66;5034234;28;20040;-72
2021/03/24 01:33:02;;;;;;;30.25;8.77;;;;;;;10.50;100.00;102361.84;5031833;28;20484;-71
2021/03/24 01:35:28;;;;;;;32.63;10.57;;;;;;;10.50;100.00;102351.75;5034132;28;20034;-71
2021/03/24 01:37:54;;;;;;;37.88;10.05;;;;;;;10.50;100.00;102346.28;5033942;28;20446;-71
2021/03/24 01:40:50;;;;;;;30.42;10.57;;;;;;;10.51;100.00;102350.72;5033807;28;20091;-72
2021/03/24 01:43:29;;;;;;;42.88;11.25;;;;;;;10.51;100.00;102353.44;5033778;28;20091;-72
2021/03/24 01:46:16;;;;;;;37.65;10.43;;;;;;;10.50;100.00;102340.84;5033905;28;20029;-71
2021/03/24 01:48:43;;;;;;;33.83;10.27;;;;;;;10.52;100.00;102338.72;5033721;28;20079;-72
2021/03/24 01:51:08;;;;;;;34.95;10.65;;;;;;;10.51;100.00;102337.06;5033753;28;20098;-72
2021/03/24 01:53:37;;;;;;;52.60;13.13;;;;;;;10.52;100.00;102337.91;5033761;28;20124;-71
2021/03/24 01:56:05;;;;;;;33.85;10.73;;;;;;;10.51;100.00;102326.13;5033701;28;20039;-71
2021/03/24 01:58:31;;;;;;;30.25;10.25;;;;;;;10.51;100.00;102331.59;5033505;28;20029;-72
2021/03/24 02:00:57;;;;;;;40.42;10.90;;;;;;;10.51;100.00;102337.06;5033570;28;20041;-70
2021/03/24 02:03:25;;;;;;;29.30;10.35;;;;;;;10.49;100.00;102333.69;5034062;28;20041;-72
2021/03/24 02:05:53;;;;;;;35.03;10.70;;;;;;;10.50;100.00;102318.97;5033544;28;20480;-71
2021/03/24 02:08:26;;;;;;;37.97;10.13;;;;;;;10.50;100.00;102324.44;5033613;28;20040;-71
2021/03/24 02:11:07;;;;;;;40.83;10.23;;;;;;;10.50;100.00;102318.97;5033680;28;20033;-71
2021/03/24 02:13:38;;;;;;;35.47;9.75;;;;;;;10.48;100.00;102315.63;5033488;28;20119;-71
2021/03/24 02:16:17;;;;;;;32.80;8.52;;;;;;;10.47;100.00;102319.41;5033453;28;20036;-70
2021/03/24 02:18:44;;;;;;;31.67;9.43;;;;;;;10.48;100.00;102301.97;5033517;28;20120;-70
2021/03/24 02:21:19;;;;;;;32.78;10.48;;;;;;;10.49;100.00;102300.91;5033483;28;20045;-71
2021/03/24 02:24:06;;;;;;;40.83;10.55;;;;;;;10.49;100.00;102300.06;5033279;28;20045;-72
2021/03/24 02:26:45;;;;;;;26.58;9.48;;;;;;;10.48;100.00;102304.69;5033107;28;20057;-71
2021/03/24 02:29:15;;;;;;;37.55;9.10;;;;;;;10.49;100.00;102309.09;5033271;28;20029;-72
2021/03/24 02:31:42;;;;;;;25.98;8.02;;;;;;;10.48;100.00;102301.97;5033405;28;20045;-72
2021/03/24 02:34:14;;;;;;;34.17;9.50;;;;;;;10.48;100.00;102296.50;5032731;28;20117;-71
2021/03/24 02:36:40;;;;;;;28.80;8.85;;;;;;;10.49;100.00;102295.44;5033225;28;20484;-71
2021/03/24 02:39:09;;;;;;;25.77;8.43;;;;;;;10.49;100.00;102284.50;5031575;28;20048;-72
2021/03/24 02:41:38;;;;;;;24.35;8.27;;;;;;;10.48;100.00;102285.56;5033105;28;20033;-72
2021/03/24 02:44:04;;;;;;;33.72;8.55;;;;;;;10.49;100.00;102289.97;5032728;28;20039;-72
2021/03/24 02:46:30;;;;;;;28.67;9.10;;;;;;;10.50;100.00;102285.34;5032715;28;20377;-71
2021/03/24 02:48:56;;;;;;;30.90;9.73;;;;;;;10.49;100.00;102289.97;5032662;28;20090;-71
2021/03/24 02:51:24;;;;;;;24.83;7.80;;;;;;;10.50;100.00;102285.34;5032674;28;20112;-71
2021/03/24 02:53:53;;;;;;;30.98;7.63;;;;;;;10.48;100.00;102282.84;5032552;28;20068;-71
2021/03/24 02:56:18;;;;;;;30.40;8.93;;;;;;;10.48;100.00;102271.06;5032611;28;20041;-71
2021/03/24 02:58:44;;;;;;;27.00;8.60;;;;;;;10.46;100.00;102274.00;5032616;28;20034;-71
2021/03/24 03:01:21;;;;;;;33.90;8.82;;;;;;;10.46;100.00;102268.53;5032432;28;20154;-71
2021/03/24 03:03:53;;;;;;;39.08;10.23;;;;;;;10.45;100.00;102271.47;5032349;28;20038;-72
2021/03/24 03:06:21;;;;;;;34.45;9.10;;;;;;;10.45;100.00;102277.78;5032308;28;20105;-71
2021/03/24 03:08:56;;;;;;;32.05;9.82;;;;;;;10.44;100.00;102276.09;5032336;28;20140;-71
2021/03/24 03:11:39;;;;;;;33.38;9.60;;;;;;;10.43;100.00;102268.97;5032281;28;20056;-71
2021/03/24 03:14:10;;;;;;;35.25;10.25;;;;;;;10.41;100.00;102276.53;5032255;28;20033;-71
2021/03/24 03:16:49;;;;;;;31.55;9.90;;;;;;;10.38;100.00;102271.44;5032162;28;20038;-71
2021/03/24 03:19:49;;;;;;;32.75;9.80;;;;;;;10.36;100.00;102279.00;5032034;28;20106;-71
2021/03/24 03:22:25;;;;;;;34.42;10.10;;;;;;;10.35;100.00;102277.31;5031574;28;20049;-71
2021/03/24 03:24:56;;;;;;;40.35;9.68;;;;;;;10.35;100.00;102281.94;5031784;28;20555;-71
2021/03/24 03:27:25;;;;;;;37.00;9.43;;;;;;;10.32;100.00;102277.75;5032037;28;20033;-71
2021/03/24 03:29:55;;;;;;;36.38;10.35;;;;;;;10.31;100.00;102276.06;5031965;28;20044;-70
2021/03/24 03:32:23;;;;;;;34.92;10.43;;;;;;;10.29;100.00;102272.69;5032094;28;20472;-71
2021/03/24 03:35:02;;;;;;;30.30;10.23;;;;;;;10.27;100.00;102269.34;5031916;28;20075;-71
2021/03/24 03:37:28;;;;;;;28.27;9.93;;;;;;;10.27;100.00;102269.34;5031670;28;20038;-71
2021/03/24 03:39:55;;;;;;;23.15;8.52;;;;;;;10.24;100.00;102264.28;5031635;28;20044;-70
2021/03/24 03:42:24;;;;;;;29.65;8.60;;;;;;;10.24;100.00;102261.56;5031733;28;20140;-71
2021/03/24 03:44:52;;;;;;;33.60;9.07;;;;;;;10.23;100.00;102263.41;5030290;28;20035;-71
2021/03/24 03:47:18;;;;;;;28.38;9.52;;;;;;;10.23;100.00;102262.56;5030892;28;20079;-71
2021/03/24 03:49:43;;;;;;;27.25;9.38;;;;;;;10.24;100.00;102264.28;5030162;28;20045;-72
2021/03/24 03:52:18;;;;;;;29.80;9.07;;;;;;;10.24;100.00;102258.81;5031468;28;20103;-71
2021/03/24 03:54:50;;;;;;;29.55;8.90;;;;;;;10.24;100.00;102259.66;5031447;28;20038;-70
2021/03/24 03:57:34;;;;;;;28.23;9.98;;;;;;;10.24;100.00;102248.75;5030186;28;20040;-71
2021/03/24 04:00:20;;;;;;;28.58;9.57;;;;;;;10.24;100.00;102242.44;5031353;28;20033;-71
2021/03/24 04:02:51;;;;;;;31.05;8.23;;;;;;;10.25;100.00;102249.59;5031473;28;20044;-71
2021/03/24 04:05:31;;;;;;;22.80;7.70;;;;;;;10.25;100.00;102246.84;5031161;28;20044;-71
2021/03/24 04:08:04;;;;;;;20.08;7.82;;;;;;;10.24;100.00;102254.22;5031348;28;20072;-71
2021/03/24 04:10:34;;;;;;;23.52;8.18;;;;;;;10.24;100.00;102247.91;5031069;28;20041;-71
2021/03/24 04:13:02;;;;;;;37.83;9.82;;;;;;;10.25;100.00;102241.38;5029650;28;20045;-71
2021/03/24 04:15:30;;;;;;;24.48;7.95;;;;;;;10.24;100.00;102239.72;5031285;28;20033;-71
2021/03/24 04:18:05;;;;;;;25.85;8.93;;;;;;;10.25;100.00;102244.13;5031096;28;20041;-71
2021/03/24 04:20:33;;;;;;;28.38;7.82;;;;;;;10.24;100.00;102250.63;5031074;28;20104;-71
2021/03/24 04:23:02;;;;;;;23.02;7.90;;;;;;;10.25;100.00;102244.13;5030974;28;20037;-70
2021/03/24 04:25:36;;;;;;;30.10;8.52;;;;;;;10.25;100.00;102252.31;5030498;28;20048;-71
2021/03/24 04:28:04;;;;;;;31.70;8.15;;;;;;;10.26;100.00;102254.00;5030947;28;20037;-70
2021/03/24 04:30:37;;;;;;;19.95;8.02;;;;;;;10.25;100.00;102249.59;5030980;28;20069;-71
2021/03/24 04:33:02;;;;;;;26.88;8.40;;;;;;;10.26;100.00;102240.34;5030933;28;20069;-70
2021/03/24 04:35:28;;;;;;;26.65;9.05;;;;;;;10.27;100.00;102239.28;5031042;28;20140;-71
2021/03/24 04:37:58;;;;;;;31.67;8.23;;;;;;;10.28;100.00;102243.69;5030806;28;20503;-71
2021/03/24 04:40:31;;;;;;;22.50;7.70;;;;;;;10.27;100.00;102242.03;5030685;28;20040;-71
2021/03/24 04:43:09;;;;;;;21.35;8.02;;;;;;;10.28;100.00;102227.31;5030742;28;20029;-71
2021/03/24 04:45:55;;;;;;;29.55;8.43;;;;;;;10.28;100.00;102238.25;5030666;28;20076;-71
2021/03/24 04:48:26;;;;;;;21.38;8.10;;;;;;;10.29;100.00;102241.81;5030863;28;20068;-71
2021/03/24 04:51:03;;;;;;;31.98;8.57;;;;;;;10.29;100.00;102239.09;5030989;28;20037;-71
2021/03/24 04:53:34;;;;;;;21.63;7.82;;;;;;;10.29;100.00;102234.47;5030694;28;20080;-71
2021/03/24 04:56:01;;;;;;;23.33;7.57;;;;;;;10.29;100.00;102239.94;5029270;28;20080;-71
2021/03/24 04:58:40;;;;;;;27.77;7.30;;;;;;;10.29;100.00;102245.38;5033469;28;20029;-71
2021/03/24 05:01:38;;;;;;;21.88;8.05;;;;;;;10.30;100.00;102235.31;5034612;28;20117;-71
2021/03/24 05:04:08;;;;;;;20.63;7.63;;;;;;;10.32;100.00;102235.94;5034703;28;20068;-71
2021/03/24 05:06:38;;;;;;;22.58;7.85;;;;;;;10.32;100.00;102231.31;5034406;28;20044;-70
2021/03/24 05:09:09;;;;;;;29.63;8.75;;;;;;;10.31;100.00;102237.81;5034471;28;20041;-71
2021/03/24 05:11:46;;;;;;;23.55;8.57;;;;;;;10.32;100.00;102236.78;5034432;28;20040;-70
2021/03/24 05:14:26;;;;;;;26.42;7.95;;;;;;;10.32;100.00;102234.03;5034422;28;20420;-71
2021/03/24 05:17:04;;;;;;;21.90;7.15;;;;;;;10.32;100.00;102239.50;5034706;28;20052;-72
2021/03/24 05:19:30;;;;;;;26.77;8.15;;;;;;;10.31;100.00;102240.56;5034331;28;20033;-71
2021/03/24 05:22:10;;;;;;;28.38;9.18;;;;;;;10.32;100.00;102244.13;5034438;28;20124;-71
2021/03/24 05:24:39;;;;;;;22.27;8.45;;;;;;;10.31;100.00;102243.28;5034264;28;20480;-71
2021/03/24 05:27:19;;;;;;;23.48;10.18;;;;;;;10.31;100.00;102243.28;5033994;28;20446;-71
2021/03/24 05:29:55;;;;;;;28.65;8.63;;;;;;;10.31;100.00;102243.28;5034067;28;20391;-71
2021/03/24 05:32:26;;;;;;;25.40;7.97;;;;;;;10.31;100.00;102243.28;5034678;28;20125;-71
2021/03/24 05:34:56;;;;;;;30.98;7.72;;;;;;;10.31;100.00;102246.00;5034081;28;20716;-71
2021/03/24 05:37:29;;;;;;;36.22;7.72;;;;;;;10.31;100.00;102242.44;5034289;28;20434;-71
2021/03/24 05:40:09;;;;;;;22.27;7.55;;;;;;;10.31;100.00;102247.91;5034116;28;20567;-71
2021/03/24 05:43:06;;;;;;;30.95;7.35;;;;;;;10.32;100.00;102250.44;5033933;28;20058;-71
2021/03/24 05:45:45;;;;;;;23.42;7.50;;;;;;;10.31;100.00;102237.81;5033531;28;20072;-70
2021/03/24 05:48:22;;;;;;;26.50;8.27;;;;;;;10.32;100.00;102253.16;5033811;28;20446;-70
2021/03/24 05:50:58;;;;;;;28.92;7.63;;;;;;;10.32;100.00;102255.91;5033643;28;20467;-71
2021/03/24 05:54:00;;;;;;;27.08;7.10;;;;;;;10.32;100.00;102255.91;5033702;28;20388;-71
2021/03/24 05:56:35;;;;;;;27.17;7.13;;;;;;;10.33;100.00;102262.19;5033696;28;20388;-71
2021/03/24 05:59:19;;;;;;;;;;;;;;;10.34;100.00;102259.25;5033999;28;20563;-70
2021/03/24 06:01:54;;;;;;;29.55;7.05;;;;;;;10.34;100.00;102259.25;5032085;28;20295;-70
2021/03/24 06:04:39;;;;;;;22.13;7.45;;;;;;;10.34;100.00;102258.41;5033339;28;20546;-71
2021/03/24 06:07:41;;;;;;;28.85;7.68;;;;;;;10.34;100.00;102264.72;5033467;28;20407;-70
2021/03/24 06:10:12;;;;;;;23.30;6.35;;;;;;;10.35;100.00;102266.41;5032640;28;20040;-72
2021/03/24 06:12:37;;;;;;;26.27;7.50;;;;;;;10.36;100.00;102262.63;5033450;28;20152;-71
2021/03/24 06:15:06;;;;;;;29.05;6.97;;;;;;;10.38;100.00;102268.72;5033264;28;20156;-71
2021/03/24 06:17:58;;;;;;;25.45;7.20;;;;;;;10.38;100.00;102259.69;5033234;28;20083;-70
2021/03/24 06:20:49;;;;;;;27.27;7.78;;;;;;;10.40;100.00;102269.34;5033119;28;20502;-71
2021/03/24 06:23:25;;;;;;;22.98;7.00;;;;;;;10.39;100.00;102262.19;5033116;28;20033;-71
2021/03/24 06:26:28;;;;;;;25.92;7.38;;;;;;;10.40;100.00;102269.34;5033025;28;20123;-71
2021/03/24 06:29:11;;;;;;;29.98;7.68;;;;;;;10.42;100.00;102256.34;5033106;28;20044;-71
2021/03/24 06:32:03;;;;;;;20.77;6.68;;;;;;;10.41;100.00;102260.13;5033012;28;20479;-71
2021/03/24 06:34:40;;;;;;;21.25;6.28;;;;;;;10.42;100.00;102264.53;5032810;28;20539;-70
2021/03/24 06:37:20;;;;;;;24.90;6.30;;;;;;;10.42;100.00;102267.28;5032870;28;20029;-70
2021/03/24 06:39:54;;;;;;;22.42;7.03;;;;;;;10.44;100.00;102276.09;5032796;28;20033;-71
2021/03/24 06:42:37;;;;;;;;;;;;;;;10.45;100.00;102272.31;5033324;28;20500;-70
2021/03/24 06:45:24;;;;;;;19.23;6.88;;;;;;;10.47;100.00;102280.31;5033194;28;19920;-70
2021/03/24 06:47:58;;;;;;;28.10;6.60;;;;;;;10.47;100.00;102281.16;5032689;28;20547;-71
2021/03/24 06:50:59;;;;;;;26.27;6.18;;;;;;;10.49;100.00;102281.78;5063679;28;20049;-71
2021/03/24 06:53:40;;;;;;;18.85;6.30;;;;;;;10.49;100.00;102278.22;5032418;28;20111;-71
2021/03/24 06:56:09;;;;;;;29.70;7.25;;;;;;;10.51;100.00;102281.56;5032563;28;20042;-70
2021/03/24 06:58:56;;;;;;;25.90;7.05;;;;;;;10.51;100.00;102287.03;5032533;28;20025;-70
2021/03/24 07:01:49;;;;;;;30.60;7.32;;;;;;;10.55;100.00;102294.59;5032541;28;20037;-70
2021/03/24 07:04:47;;;;;;;31.30;6.13;;;;;;;10.54;100.00;102292.91;5032500;28;20041;-71
2021/03/24 07:07:49;;;;;;;34.42;6.53;;;;;;;10.55;100.00;102294.59;5032294;28;20488;-71
2021/03/24 07:10:27;;;;;;;14.43;5.55;;;;;;;10.60;100.00;102290.44;5032171;28;20033;-70
2021/03/24 07:13:23;;;;;;;25.50;6.85;;;;;;;10.65;100.00;102293.38;5032230;28;20037;-70
2021/03/24 07:16:01;;;;;;;28.17;5.55;;;;;;;10.71;100.00;102292.53;5032256;28;20075;-71
2021/03/24 07:18:38;;;;;;;31.02;6.80;;;;;;;10.75;100.00;102288.34;5032100;28;20471;-71
2021/03/24 07:21:18;;;;;;;20.02;5.43;;;;;;;10.77;100.00;102280.78;5032086;28;20543;-71
2021/03/24 07:23:55;;;;;;;18.45;5.63;;;;;;;10.79;100.00;102279.53;5030677;28;20065;-71
2021/03/24 07:26:45;;;;;;;18.98;5.90;;;;;;;10.80;100.00;102280.38;5031723;28;20084;-70
2021/03/24 07:29:16;;;;;;;23.13;5.75;;;;;;;10.81;100.00;102287.53;5032034;28;20045;-71
2021/03/24 07:32:00;;;;;;;13.73;4.65;;;;;;;10.83;100.00;102288.16;5030631;28;20040;-70
2021/03/24 07:34:48;;;;;;;22.08;6.25;;;;;;;10.84;100.00;102292.56;5032289;28;20151;-70
2021/03/24 07:37:35;;;;;;;21.48;5.20;;;;;;;10.85;100.00;102294.25;5031634;28;20476;-70
2021/03/24 07:40:23;;;;;;;28.48;8.13;;;;;;;10.86;100.00;102295.94;5031538;28;20468;-70
2021/03/24 07:43:30;;;;;;;22.00;5.38;;;;;;;10.87;100.00;102301.19;5031952;28;20041;-71
2021/03/24 07:46:15;;;;;;;19.60;5.90;;;;;;;10.87;100.00;102308.53;5029072;28;20511;-70
2021/03/24 07:48:56;;;;;;;;;;;;;;;10.86;100.00;102312.31;5029728;28;20137;-71
2021/03/24 07:51:52;;;;;;;22.58;6.57;;;;;;;10.83;100.00;102312.75;5031027;28;19978;-70
2021/03/24 07:54:36;;;;;;;29.25;5.72;;;;;;;10.83;100.00;102318.22;5031360;28;20044;-70
2021/03/24 07:57:07;;;;;;;20.50;5.72;;;;;;;10.82;100.00;102322.00;5031417;28;20037;-70
2021/03/24 08:00:02;;;;;;;23.25;6.00;;;;;;;10.80;100.00;102324.09;5031362;28;20107;-71
2021/03/24 08:02:34;;;;;;;26.98;7.00;;;;;;;10.78;100.00;102326.22;5031391;28;20033;-71
2021/03/24 08:05:24;;;;;;;14.15;4.40;;;;;;;10.76;100.00;102320.94;5031214;28;20434;-71
2021/03/24 08:08:08;;;;;;;14.95;4.47;;;;;;;10.72;100.00;102318.81;5031395;28;20033;-70
2021/03/24 08:10:59;;;;;;;17.60;4.03;;;;;;;10.67;100.00;102319.44;5031139;28;20061;-70
2021/03/24 08:13:31;;;;;;;13.80;4.10;;;;;;;10.66;100.00;102327.84;5031124;28;20044;-71
2021/03/24 08:16:22;;;;;;;17.10;4.53;;;;;;;10.63;100.00;102322.81;5031175;28;20033;-71
2021/03/24 08:19:11;;;;;;;11.30;4.60;;;;;;;10.61;100.00;102324.91;5031695;28;20510;-72
2021/03/24 08:21:51;;;;;;;12.70;4.65;;;;;;;10.61;100.00;102324.91;5031022;28;20369;-70
2021/03/24 08:24:45;;;;;;;7.78;3.40;;;;;;;10.60;100.00;102321.34;5031052;28;20041;-71
2021/03/24 08:27:36;;;;;;;6.88;2.53;;;;;;;10.57;100.00;102319.81;5030695;28;20537;-71
2021/03/24 08:30:14;;;;;;;4.38;1.75;;;;;;;10.50;100.00;102323.59;5030888;28;20087;-71
2021/03/24 08:33:07;;;;;;;4.55;1.83;;;;;;;10.49;100.00;102328.22;5030503;28;20049;-71
2021/03/24 08:35:51;;;;;;;2.78;1.20;;;;;;;10.49;100.00;102328.22;5030952;28;20029;-70
2021/03/24 08:38:51;;;;;;;4.60;1.98;;;;;;;10.47;100.00;102324.84;5030939;28;20068;-71
2021/03/24 08:41:52;;;;;;;3.55;1.75;;;;;;;10.47;100.00;102330.31;5029551;28;20417;-70
2021/03/24 08:44:28;;;;;;;2.25;1.20;;;;;;;10.44;100.00;102349.03;5030628;28;20029;-70
2021/03/24 08:46:59;;;;;;;3.60;1.17;;;;;;;10.43;100.00;102342.72;5030707;28;20488;-70
2021/03/24 08:49:30;;;;;;;2.15;1.25;;;;;;;10.46;100.00;102350.50;5029341;28;20037;-71
2021/03/24 08:52:16;;;;;;;4.88;1.27;;;;;;;10.51;100.00;102342.50;5030829;28;20084;-70
2021/03/24 08:55:03;;;;;;;3.60;1.17;;;;;;;10.53;100.00;102339.56;5030705;28;20040;-71
2021/03/24 08:57:45;;;;;;;3.97;1.30;;;;;;;10.58;100.00;102346.09;5030813;28;20534;-71
2021/03/24 09:00:38;;;;;;;4.68;1.75;;;;;;;10.67;100.00;102345.94;5030626;28;20044;-71
2021/03/24 09:03:31;;;;;;;4.40;1.50;;;;;;;10.79;100.00;102349.75;5030623;28;20037;-70
2021/03/24 09:06:04;;;;;;;3.95;1.30;;;;;;;10.93;100.00;102345.97;5030604;28;20029;-70
2021/03/24 09:08:38;;;;;;;5.50;1.60;;;;;;;11.08;100.00;102343.91;5046266;28;20143;-72
2021/03/24 09:11:36;;;;;;;7.88;2.67;;;;;;;11.25;100.00;102338.00;5046155;28;20120;-71
2021/03/24 09:14:26;;;;;;;5.28;2.08;;;;;;;11.37;100.00;102347.28;5028431;28;20119;-70
2021/03/24 09:17:03;;;;;;;6.45;1.58;;;;;;;11.47;100.00;102342.25;5030596;28;20049;-64
2021/03/24 09:19:38;;;;;;;4.43;1.40;;;;;;;11.47;100.00;102347.72;5030309;28;20033;-68
2021/03/24 09:22:22;;;;;;;;;;;;;;;11.46;100.00;102340.56;5043735;28;20082;-68
2021/03/24 09:25:25;;;;;;;2.90;1.55;;;;;;;11.41;100.00;102351.28;5050099;28;19924;-68
2021/03/24 09:27:59;;;;;;;4.68;1.73;;;;;;;11.40;100.00;102352.31;5038712;28;20036;-69
2021/03/24 09:31:01;;;;;;;4.15;1.48;;;;;;;11.40;100.00;102346.84;5043344;28;20132;-68
2021/03/24 09:33:27;;;;;;;2.65;0.88;;;;;;;11.37;100.00;102347.28;5043505;28;20032;-67
2021/03/24 09:36:30;;;;;;;5.43;1.88;;;;;;;11.39;100.00;102361.59;5063536;28;20585;-66
2021/03/24 09:39:00;;;;;;;1.70;1.00;;;;;;;11.43;100.00;102354.63;5051210;28;20033;-67
2021/03/24 09:41:29;;;;;;;3.55;1.08;;;;;;;11.49;100.00;102342.88;5049941;28;20032;-68
2021/03/24 09:44:00;;;;;;;3.13;1.20;;;;;;;11.62;100.00;102340.09;5049430;28;20479;-70
2021/03/24 09:46:40;;;;;;;5.22;1.42;;;;;;;11.76;100.00;102347.25;5050193;28;20028;-66
2021/03/24 09:49:34;;;;;;;5.47;1.88;;;;;;;11.87;100.00;102353.16;5053395;28;20040;-68
2021/03/24 09:52:31;;;;;;;4.07;1.02;;;;;;;11.89;100.00;102351.88;5053618;28;20025;-68
2021/03/24 09:55:13;;;;;;;2.65;1.40;;;;;;;11.91;100.00;102348.94;5053249;28;20029;-67
2021/03/24 09:57:52;;;;;;;2.80;0.93;;;;;;;11.89;100.00;102351.03;5052341;28;20029;-67
2021/03/24 10:00:18;;;;;;;2.22;1.10;;;;;;;11.88;100.00;102343.88;5053511;28;20036;-68
2021/03/24 10:02:54;;;;;;;1.27;0.73;;;;;;;11.90;100.00;102336.31;5053414;28;20068;-67
2021/03/24 10:05:39;;;;;;;3.55;0.60;;;;;;;11.98;100.00;102334.19;5052176;28;20064;-67
2021/03/24 10:08:16;;;;;;;2.38;0.70;;;;;;;12.09;100.00;102332.66;5046903;28;20044;-67
2021/03/24 10:10:44;;;;;;;1.50;0.95;;;;;;;12.18;100.00;102328.63;5052211;28;20029;-67
2021/03/24 10:13:19;;;;;;;3.45;0.70;;;;;;;12.28;100.00;102329.00;5052874;28;20048;-68
2021/03/24 10:15:53;;;;;;;2.72;0.88;;;;;;;12.40;100.00;102325.59;5052361;28;20036;-68
2021/03/24 10:18:42;;;;;;;3.13;1.00;;;;;;;12.56;100.00;102331.41;5053224;28;20047;-68
2021/03/24 10:21:16;;;;;;;2.45;0.60;;;;;;;12.73;100.00;102331.75;5052956;28;20028;-66
2021/03/24 10:23:53;;;;;;;2.33;0.85;;;;;;;12.91;100.00;102323.59;5051883;28;20048;-67
2021/03/24 10:26:27;;;;;;;3.58;0.70;;;;;;;13.04;100.00;102327.31;5051870;28;20045;-67
2021/03/24 10:29:00;;;;;;;3.30;0.70;;;;;;;13.13;100.00;102334.19;5053036;28;20391;-67
2021/03/24 10:31:39;;;;;;;1.98;0.73;;;;;;;13.18;100.00;102345.38;5053105;28;20270;-68
2021/03/24 10:34:19;;;;;;;3.90;1.15;;;;;;;13.18;100.00;102339.88;5052421;28;20407;-67
2021/03/24 10:37:08;;;;;;;3.70;1.00;;;;;;;13.14;100.00;102331.22;5052485;28;20360;-66
2021/03/24 10:39:55;;;;;;;6.63;1.50;;;;;;;13.11;100.00;102339.06;5052551;28;20537;-64
2021/03/24 10:42:23;;;;;;;3.35;1.25;;;;;;;13.04;100.00;102341.03;5052415;28;20041;-67
2021/03/24 10:44:58;;;;;;;4.10;0.93;;;;;;;12.91;100.00;102339.22;5052324;28;20028;-68
2021/03/24 10:47:38;;;;;;;3.58;0.85;;;;;;;12.89;100.00;102336.69;5047578;28;20044;-66
2021/03/24 10:50:14;;;;;;;1.88;0.45;;;;;;;12.93;100.00;102332.44;5052751;28;20115;-68
2021/03/24 10:52:57;;;;;;;2.22;0.60;;;;;;;12.98;100.00;102332.59;5052687;28;20029;-67
2021/03/24 10:55:29;;;;;;;1.73;0.50;;;;;;;12.99;100.00;102339.78;5083459;28;20037;-68
2021/03/24 10:58:13;;;;;;;3.40;0.60;;;;;;;13.05;100.00;102334.47;5047322;28;20055;-68
2021/03/24 11:00:48;;;;;;;2.87;1.00;;;;;;;13.13;100.00;102336.94;5051886;28;20021;-68
2021/03/24 11:03:23;;;;;;;3.67;0.82;;;;;;;13.20;100.00;102340.53;5032684;28;20037;-68
2021/03/24 11:05:53;;;;;;;6.13;0.93;;;;;;;13.26;100.00;102340.47;5039511;28;20025;-68
2021/03/24 11:08:59;;;;;;;11.93;1.17;;;;;;;13.30;100.00;102327.13;5051908;28;20510;-67
2021/03/24 11:11:55;;;;;;;9.55;1.42;;;;;;;13.24;100.00;102328.88;5051185;28;20498;-65
2021/03/24 11:14:24;;;;;;;6.43;2.20;;;;;;;13.40;100.00;102334.88;5051686;28;20029;-68
2021/03/24 11:17:05;;;;;;;6.07;1.20;;;;;;;13.49;100.00;102337.09;5032244;28;20033;-68
2021/03/24 11:19:36;;;;;;;5.07;0.73;;;;;;;13.64;100.00;102333.16;5032224;28;20045;-67
2021/03/24 11:22:14;;;;;;;9.15;1.30;;;;;;;13.84;100.00;102331.03;5041814;28;20041;-68
2021/03/24 11:25:01;;;;;;;5.80;1.52;;;;;;;13.88;100.00;102332.25;5051870;28;20028;-67
2021/03/24 11:27:51;;;;;;;7.13;1.50;;;;;;;13.91;100.00;102334.56;5047152;28;20049;-65
2021/03/24 11:30:29;;;;;;;10.77;1.52;;;;;;;13.86;100.00;102334.41;5052001;28;20036;-66
2021/03/24 11:33:06;;;;;;;3.58;1.73;;;;;;;13.92;100.00;102324.44;5051957;28;20032;-66
2021/03/24 11:35:38;;;;;;;12.98;1.88;;;;;;;13.93;100.00;102313.22;5050848;28;20039;-64
2021/03/24 11:38:28;;;;;;;4.47;1.23;;;;;;;14.19;100.00;102304.63;5051724;28;20029;-64
2021/03/24 11:40:54;;;;;;;5.78;1.10;;;;;;;14.53;100.00;102305.06;5049310;28;20086;-67
2021/03/24 11:43:24;;;;;;;7.95;2.20;;;;;;;14.77;100.00;102306.84;5051215;28;20491;-68
2021/03/24 11:46:04;;;;;;;7.35;2.63;;;;;;;15.08;100.00;102302.13;5051709;28;20082;-68
2021/03/24 11:48:44;;;;;;;11.05;2.20;;;;;;;15.29;100.00;102312.59;5051297;28;20039;-68
2021/03/24 11:51:56;;;;;;;4.57;0.93;;;;;;;15.46;100.00;102320.13;5051606;28;20051;-65
2021/03/24 11:54:28;;;;;;;8.15;1.50;;;;;;;15.55;100.00;102329.72;5050943;28;20059;-68